Time;durP1;ratioP1;P1;durP2;ratioP2;P2;SDS_P1;SDS_P2;PMS_P1;PMS_P2;Temp;Humidity;BMP_temperature;BMP_pressure;BME280_temperature;BME280_humidity;BME280_pressure;Samples;Min_cycle;Max_cycle;Signal;HPM_P1;HPM_P2
2023/07/07 00:00:04;;;;;;;6.35;3.33;;;17.50;85.60;;;;;;5023010;28;20042;-72
2023/07/07 00:02:30;;;;;;;5.90;3.00;;;17.40;86.00;;;;;;5023853;28;20064;-71
2023/07/07 00:04:56;;;;;;;4.65;3.03;;;17.40;86.20;;;;;;5040792;28;20069;-73
2023/07/07 00:07:21;;;;;;;6.97;3.53;;;17.30;86.20;;;;;;5021037;28;20029;-72
2023/07/07 00:09:47;;;;;;;5.72;3.20;;;17.30;86.30;;;;;;5024761;28;20025;-73
2023/07/07 00:12:13;;;;;;;4.35;2.40;;;17.30;86.40;;;;;;5025257;28;20022;-74
2023/07/07 00:14:39;;;;;;;5.88;3.53;;;17.30;86.60;;;;;;5024311;28;20380;-74
2023/07/07 00:17:05;;;;;;;7.30;3.60;;;17.20;86.60;;;;;;5026365;28;20167;-75
2023/07/07 00:19:33;;;;;;;6.38;3.08;;;17.20;86.70;;;;;;5043632;28;20395;-74
2023/07/07 00:22:03;;;;;;;6.93;3.60;;;17.10;87.00;;;;;;5022402;28;20476;-73
2023/07/07 00:24:28;;;;;;;5.78;3.40;;;17.10;87.30;;;;;;5034888;28;20022;-73
2023/07/07 00:26:54;;;;;;;7.20;3.30;;;17.10;87.60;;;;;;5022861;28;20018;-73
2023/07/07 00:29:20;;;;;;;4.82;2.80;;;17.10;87.90;;;;;;5023716;28;20036;-73
2023/07/07 00:31:45;;;;;;;4.53;3.20;;;17.10;88.10;;;;;;5024239;28;20041;-73
2023/07/07 00:34:11;;;;;;;9.02;3.22;;;17.00;88.10;;;;;;5021457;28;20026;-73
2023/07/07 00:36:36;;;;;;;6.10;3.47;;;17.00;88.40;;;;;;5022813;28;20365;-74
2023/07/07 00:39:02;;;;;;;6.72;3.75;;;16.90;88.60;;;;;;5026115;28;20034;-75
2023/07/07 00:41:28;;;;;;;4.53;2.95;;;16.90;89.00;;;;;;5025213;28;20399;-74
2023/07/07 00:44:06;;;;;;;4.43;2.88;;;16.90;89.10;;;;;;5025079;28;20047;-72
2023/07/07 00:46:32;;;;;;;10.48;3.53;;;16.90;89.30;;;;;;5026050;28;20079;-73
2023/07/07 00:49:00;;;;;;;5.85;3.03;;;16.80;89.40;;;;;;5023868;28;20037;-72
2023/07/07 00:51:34;;;;;;;7.65;3.35;;;16.80;89.60;;;;;;5028537;28;20439;-73
2023/07/07 00:54:07;;;;;;;7.00;3.05;;;16.70;89.80;;;;;;5031691;28;20055;-74
2023/07/07 00:56:38;;;;;;;4.35;3.05;;;16.60;90.00;;;;;;5027228;28;20027;-74
2023/07/07 00:59:10;;;;;;;4.93;3.08;;;16.60;90.10;;;;;;5028824;28;20093;-74
2023/07/07 01:01:37;;;;;;;6.32;3.80;;;16.60;90.20;;;;;;5031701;28;20031;-73
2023/07/07 01:04:06;;;;;;;4.90;2.85;;;16.50;90.30;;;;;;5035562;28;20030;-74
2023/07/07 01:06:37;;;;;;;6.38;3.45;;;16.50;90.40;;;;;;5026145;28;20401;-75
2023/07/07 01:09:06;;;;;;;4.13;2.95;;;16.50;90.50;;;;;;5025315;28;20044;-74
2023/07/07 01:11:32;;;;;;;7.70;3.55;;;16.50;90.60;;;;;;5039217;28;20108;-75
2023/07/07 01:14:01;;;;;;;5.50;3.33;;;16.40;90.70;;;;;;5027703;28;20029;-74
2023/07/07 01:16:58;;;;;;;6.43;3.17;;;16.40;90.80;;;;;;5036036;28;20032;-75
2023/07/07 01:19:52;;;;;;;6.68;3.25;;;16.40;90.90;;;;;;5020914;28;20397;-73
2023/07/07 01:22:30;;;;;;;;;;;16.40;91.00;;;;;;5031905;28;20044;-74
2023/07/07 01:25:22;;;;;;;5.75;3.20;;;16.30;91.00;;;;;;5025113;28;20419;-74
2023/07/07 01:28:07;;;;;;;7.32;3.42;;;16.30;91.10;;;;;;5023885;28;20034;-74
2023/07/07 01:30:52;;;;;;;6.72;3.30;;;16.30;91.20;;;;;;5025101;28;20043;-74
2023/07/07 01:33:23;;;;;;;8.07;3.80;;;16.20;91.20;;;;;;5023485;28;20033;-74
2023/07/07 01:35:49;;;;;;;8.15;3.65;;;16.20;91.30;;;;;;5027298;28;20025;-74
2023/07/07 01:38:35;;;;;;;4.50;3.22;;;16.20;91.50;;;;;;5029857;28;20036;-74
2023/07/07 01:41:30;;;;;;;6.32;3.33;;;16.20;91.60;;;;;;5027303;28;20041;-75
2023/07/07 01:44:03;;;;;;;6.60;3.53;;;16.20;91.70;;;;;;5039943;28;20033;-74
2023/07/07 01:46:33;;;;;;;6.82;3.75;;;16.10;91.80;;;;;;5032162;28;20057;-73
2023/07/07 01:49:25;;;;;;;5.10;3.42;;;16.10;91.90;;;;;;5024765;28;20029;-74
2023/07/07 01:52:00;;;;;;;5.20;3.20;;;16.10;92.00;;;;;;5022400;28;20029;-74
2023/07/07 01:54:29;;;;;;;6.50;3.58;;;16.10;92.10;;;;;;5025426;28;20038;-74
2023/07/07 01:56:56;;;;;;;6.55;3.53;;;16.10;92.20;;;;;;5023933;28;20512;-74
2023/07/07 01:59:22;;;;;;;7.90;3.75;;;16.00;92.40;;;;;;5024516;28;20377;-74
2023/07/07 02:01:48;;;;;;;5.55;3.58;;;16.00;92.40;;;;;;5019431;28;20535;-74
2023/07/07 02:04:14;;;;;;;5.60;3.20;;;16.00;92.50;;;;;;5023036;28;20065;-75
2023/07/07 02:06:40;;;;;;;4.82;3.20;;;15.90;92.70;;;;;;5021839;28;20053;-75
2023/07/07 02:09:06;;;;;;;7.07;3.45;;;15.90;92.90;;;;;;5027847;28;20430;-75
2023/07/07 02:11:32;;;;;;;5.60;3.22;;;15.80;93.10;;;;;;5022678;28;20053;-75
2023/07/07 02:13:57;;;;;;;7.47;3.42;;;15.80;93.30;;;;;;5030738;28;20041;-75
2023/07/07 02:16:23;;;;;;;5.70;3.60;;;15.80;93.60;;;;;;5019823;28;20033;-74
2023/07/07 02:18:48;;;;;;;5.68;3.35;;;15.70;93.80;;;;;;5024804;28;21190;-74
2023/07/07 02:21:18;;;;;;;6.57;3.53;;;15.70;93.90;;;;;;5034019;28;20044;-74
2023/07/07 02:23:44;;;;;;;7.47;3.97;;;15.70;93.90;;;;;;5022482;28;20036;-73
2023/07/07 02:26:13;;;;;;;8.27;3.13;;;15.60;93.90;;;;;;5021288;28;20048;-74
2023/07/07 02:28:39;;;;;;;4.93;2.90;;;15.60;94.00;;;;;;5024001;28;20049;-74
2023/07/07 02:31:06;;;;;;;7.45;3.85;;;15.60;94.00;;;;;;5024097;28;20056;-74
2023/07/07 02:33:32;;;;;;;4.75;3.05;;;15.60;94.40;;;;;;5023218;28;20029;-73
2023/07/07 02:36:09;;;;;;;6.43;3.55;;;15.50;94.20;;;;;;5042045;28;20404;-74
2023/07/07 02:38:35;;;;;;;5.68;2.97;;;15.50;94.30;;;;;;5022795;28;20342;-73
2023/07/07 02:41:01;;;;;;;6.03;3.63;;;15.50;94.40;;;;;;5025770;28;20076;-74
2023/07/07 02:43:28;;;;;;;8.70;3.42;;;15.40;94.40;;;;;;5025522;28;20036;-75
2023/07/07 02:45:53;;;;;;;6.47;3.58;;;15.40;94.50;;;;;;5039209;28;20029;-74
2023/07/07 02:48:20;;;;;;;6.18;3.90;;;15.40;94.60;;;;;;5019984;28;20392;-74
2023/07/07 02:50:55;;;;;;;8.25;3.78;;;15.30;94.60;;;;;;5024695;28;20107;-74
2023/07/07 02:53:22;;;;;;;6.60;3.78;;;15.30;94.80;;;;;;5039581;28;20083;-73
2023/07/07 02:55:47;;;;;;;9.88;4.07;;;15.30;95.00;;;;;;5022139;28;20072;-73
2023/07/07 02:58:13;;;;;;;6.53;4.00;;;15.20;95.10;;;;;;5027228;28;20056;-73
2023/07/07 03:00:39;;;;;;;9.13;3.10;;;15.20;95.30;;;;;;5022902;28;20036;-72
2023/07/07 03:03:04;;;;;;;4.60;3.05;;;15.10;95.40;;;;;;5021609;28;20061;-74
2023/07/07 03:05:31;;;;;;;6.22;3.38;;;15.10;95.50;;;;;;5022938;28;20452;-73
2023/07/07 03:07:57;;;;;;;9.75;3.50;;;15.10;96.00;;;;;;5022911;28;20152;-74
2023/07/07 03:10:22;;;;;;;7.13;3.67;;;15.10;96.40;;;;;;5020891;28;20029;-74
2023/07/07 03:12:48;;;;;;;8.02;3.83;;;15.10;96.70;;;;;;5023768;28;20026;-74
2023/07/07 03:15:14;;;;;;;6.93;3.67;;;15.00;96.80;;;;;;5022141;28;20484;-74
2023/07/07 03:17:39;;;;;;;5.60;3.28;;;15.00;97.30;;;;;;5024971;28;20116;-74
2023/07/07 03:20:08;;;;;;;8.82;3.60;;;15.00;97.40;;;;;;5026009;28;20040;-74
2023/07/07 03:22:35;;;;;;;6.85;3.35;;;14.90;97.70;;;;;;5019516;28;20026;-73
2023/07/07 03:25:00;;;;;;;7.40;3.10;;;14.90;97.90;;;;;;5020973;28;20136;-74
2023/07/07 03:27:26;;;;;;;8.60;3.80;;;14.90;98.20;;;;;;5026083;28;20524;-74
2023/07/07 03:29:52;;;;;;;8.38;3.55;;;14.80;98.30;;;;;;5025150;28;20104;-73
2023/07/07 03:32:17;;;;;;;5.65;3.55;;;14.80;98.80;;;;;;5034363;28;20392;-75
2023/07/07 03:34:43;;;;;;;6.95;3.50;;;14.70;99.00;;;;;;5025277;28;20175;-74
2023/07/07 03:37:09;;;;;;;6.68;3.63;;;14.70;99.20;;;;;;5024408;28;20404;-74
2023/07/07 03:39:35;;;;;;;7.55;3.58;;;14.70;99.50;;;;;;5022469;28;20057;-74
2023/07/07 03:42:01;;;;;;;9.20;4.22;;;14.70;99.60;;;;;;5026717;28;20053;-74
2023/07/07 03:44:26;;;;;;;6.38;3.70;;;14.70;99.80;;;;;;5030287;28;20024;-74
2023/07/07 03:46:52;;;;;;;7.05;3.80;;;14.70;99.90;;;;;;5020965;28;20026;-74
2023/07/07 03:49:18;;;;;;;5.68;3.80;;;14.70;99.90;;;;;;5023608;28;20226;-74
2023/07/07 03:51:43;;;;;;;8.27;3.80;;;14.70;99.90;;;;;;5029785;28;20025;-75
2023/07/07 03:54:09;;;;;;;6.32;3.30;;;14.70;99.90;;;;;;5030390;28;20393;-73
2023/07/07 03:56:34;;;;;;;6.30;3.83;;;14.70;99.90;;;;;;5027723;28;20021;-74
2023/07/07 03:59:00;;;;;;;9.02;4.25;;;14.70;99.90;;;;;;5021967;28;20061;-74
2023/07/07 04:01:26;;;;;;;7.43;3.65;;;14.70;99.90;;;;;;5023789;28;20026;-73
2023/07/07 04:03:52;;;;;;;5.10;3.60;;;14.70;99.90;;;;;;5027007;28;20021;-74
2023/07/07 04:06:19;;;;;;;9.27;3.92;;;14.70;99.90;;;;;;5028360;28;20247;-74
2023/07/07 04:08:45;;;;;;;11.25;3.58;;;14.70;99.90;;;;;;5025858;28;20472;-74
2023/07/07 04:11:14;;;;;;;5.97;4.00;;;14.70;99.90;;;;;;5023350;28;20052;-74
2023/07/07 04:13:41;;;;;;;5.72;3.00;;;14.70;99.90;;;;;;5026030;28;20072;-74
2023/07/07 04:16:16;;;;;;;6.75;3.47;;;14.70;99.90;;;;;;5022660;28;20022;-75
2023/07/07 04:18:43;;;;;;;5.97;3.42;;;14.70;99.90;;;;;;5051781;22;20080;-77
2023/07/07 04:21:13;;;;;;;6.50;3.58;;;14.80;99.90;;;;;;5042810;28;20023;-74
2023/07/07 04:23:40;;;;;;;8.25;3.55;;;14.80;99.90;;;;;;5045925;28;20039;-75
2023/07/07 04:26:07;;;;;;;6.50;3.78;;;14.80;99.90;;;;;;5030657;28;20029;-75
2023/07/07 04:28:35;;;;;;;8.90;3.85;;;14.80;99.90;;;;;;5042568;28;20084;-76
2023/07/07 04:31:03;;;;;;;6.85;3.90;;;14.80;99.90;;;;;;5025388;28;20393;-77
2023/07/07 04:33:30;;;;;;;10.60;4.30;;;14.90;99.90;;;;;;5025146;28;20100;-76
2023/07/07 04:35:58;;;;;;;9.13;3.35;;;14.90;99.90;;;;;;5028018;28;20028;-77
2023/07/07 04:38:30;;;;;;;7.35;3.75;;;15.00;99.90;;;;;;5028160;28;20376;-77
2023/07/07 04:41:17;;;;;;;7.93;3.80;;;15.00;99.90;;;;;;5029361;28;20053;-76
2023/07/07 04:43:45;;;;;;;5.80;3.70;;;15.10;99.90;;;;;;5021480;28;20044;-76
2023/07/07 04:46:15;;;;;;;7.70;4.05;;;15.20;99.90;;;;;;5014939;28;20029;-76
2023/07/07 04:48:41;;;;;;;6.30;3.80;;;15.20;99.90;;;;;;5027186;28;20121;-75
2023/07/07 04:51:09;;;;;;;7.53;3.70;;;15.30;99.90;;;;;;5013115;28;20128;-76
2023/07/07 04:53:36;;;;;;;9.65;3.83;;;15.40;99.90;;;;;;5027853;28;20033;-77
2023/07/07 04:56:15;;;;;;;8.82;4.00;;;15.50;99.90;;;;;;5027695;28;20085;-76
2023/07/07 04:58:42;;;;;;;7.60;4.10;;;15.50;99.80;;;;;;5023208;28;20045;-77
2023/07/07 05:01:15;;;;;;;7.78;3.63;;;15.60;99.80;;;;;;5013727;28;20041;-76
2023/07/07 05:03:42;;;;;;;6.57;4.22;;;15.70;99.80;;;;;;5028064;28;20317;-76
2023/07/07 05:06:09;;;;;;;7.60;4.50;;;15.90;99.30;;;;;;5024995;28;20033;-77
2023/07/07 05:08:37;;;;;;;6.28;4.05;;;16.00;98.90;;;;;;5028918;28;20440;-77
2023/07/07 05:11:03;;;;;;;7.93;4.13;;;16.10;98.60;;;;;;5010365;28;20120;-77
2023/07/07 05:13:29;;;;;;;9.80;4.93;;;16.30;98.60;;;;;;5024712;28;20030;-77
2023/07/07 05:16:06;;;;;;;9.52;4.65;;;16.40;98.40;;;;;;5012521;28;20028;-76
2023/07/07 05:18:32;;;;;;;11.82;4.68;;;16.60;98.30;;;;;;5022395;28;20056;-77
2023/07/07 05:20:58;;;;;;;10.10;4.30;;;16.70;98.10;;;;;;5029326;28;20033;-76
2023/07/07 05:23:24;;;;;;;9.10;4.22;;;16.80;97.80;;;;;;5009235;28;20121;-77
2023/07/07 05:25:50;;;;;;;13.18;5.15;;;16.90;97.60;;;;;;5015911;28;20029;-77
2023/07/07 05:28:16;;;;;;;8.82;4.53;;;17.10;97.40;;;;;;5013284;28;20029;-69
2023/07/07 05:30:42;;;;;;;10.48;4.95;;;17.20;97.40;;;;;;5036387;28;20369;-68
2023/07/07 05:33:08;;;;;;;7.53;4.65;;;17.30;97.20;;;;;;5036517;28;20049;-68
2023/07/07 05:35:34;;;;;;;8.77;4.85;;;17.40;96.90;;;;;;5033116;28;20018;-69
2023/07/07 05:38:00;;;;;;;7.95;4.70;;;17.50;96.70;;;;;;5035254;28;20025;-68
2023/07/07 05:40:29;;;;;;;7.93;4.50;;;17.60;96.40;;;;;;5050227;28;20524;-69
2023/07/07 05:42:55;;;;;;;11.10;5.07;;;17.70;96.10;;;;;;5036840;28;20048;-69
2023/07/07 05:45:23;;;;;;;9.75;4.40;;;17.80;95.70;;;;;;5036031;28;20025;-69
2023/07/07 05:47:48;;;;;;;12.25;5.13;;;17.90;95.50;;;;;;5035615;28;20028;-69
2023/07/07 05:50:14;;;;;;;10.45;4.70;;;18.00;95.60;;;;;;5035768;28;20439;-69
2023/07/07 05:52:40;;;;;;;8.30;4.25;;;18.00;95.20;;;;;;5036174;28;20056;-69
2023/07/07 05:55:06;;;;;;;11.43;4.25;;;18.10;95.10;;;;;;5044104;28;20048;-69
2023/07/07 05:57:32;;;;;;;9.27;4.50;;;18.10;94.50;;;;;;5044055;28;20443;-69
2023/07/07 05:59:57;;;;;;;9.02;4.55;;;18.20;94.50;;;;;;5034414;28;20025;-69
2023/07/07 06:02:23;;;;;;;8.55;4.30;;;18.30;94.20;;;;;;5035170;28;20105;-69
2023/07/07 06:04:48;;;;;;;9.25;4.43;;;18.40;94.20;;;;;;5035407;28;20021;-69
2023/07/07 06:07:14;;;;;;;7.53;4.80;;;18.40;93.80;;;;;;5017794;28;20021;-69
2023/07/07 06:09:39;;;;;;;7.82;4.10;;;18.50;93.70;;;;;;5018647;28;20026;-68
2023/07/07 06:12:06;;;;;;;9.80;4.63;;;18.60;93.60;;;;;;5028912;28;20500;-69
2023/07/07 06:14:31;;;;;;;8.95;4.63;;;18.70;93.50;;;;;;5030539;28;20369;-69
2023/07/07 06:16:57;;;;;;;9.35;4.93;;;18.80;93.20;;;;;;5016451;28;20120;-69
2023/07/07 06:19:23;;;;;;;11.05;4.70;;;18.90;93.50;;;;;;5033416;28;20033;-68
2023/07/07 06:21:48;;;;;;;11.38;5.18;;;19.00;93.20;;;;;;5017757;28;20079;-69
2023/07/07 06:24:14;;;;;;;9.73;4.70;;;19.10;93.20;;;;;;5015115;28;20022;-68
2023/07/07 06:26:40;;;;;;;8.50;4.45;;;19.10;93.20;;;;;;5022499;28;20029;-77
2023/07/07 06:29:06;;;;;;;7.50;4.50;;;19.10;93.20;;;;;;5008696;28;20439;-77
2023/07/07 06:31:31;;;;;;;10.27;4.43;;;19.20;93.00;;;;;;5006437;28;20821;-76
2023/07/07 06:33:57;;;;;;;8.02;3.90;;;19.30;93.20;;;;;;5021332;28;20029;-77
2023/07/07 06:36:22;;;;;;;8.35;4.70;;;19.30;93.10;;;;;;5008910;28;20599;-77
2023/07/07 06:38:48;;;;;;;8.55;4.50;;;19.40;93.10;;;;;;5021050;28;20029;-78
2023/07/07 06:41:17;;;;;;;7.38;4.32;;;19.40;92.90;;;;;;5008991;28;20026;-76
2023/07/07 06:43:43;;;;;;;8.32;4.60;;;19.50;92.80;;;;;;5008531;28;20080;-75
2023/07/07 06:46:13;;;;;;;9.18;4.43;;;19.50;92.80;;;;;;5023856;28;20454;-76
2023/07/07 06:48:38;;;;;;;8.93;4.28;;;19.50;92.90;;;;;;5022128;28;20535;-76
2023/07/07 06:51:04;;;;;;;11.55;4.78;;;19.50;92.90;;;;;;5005708;28;20112;-75
2023/07/07 06:53:30;;;;;;;7.97;4.50;;;19.50;93.10;;;;;;5007534;28;20480;-75
2023/07/07 06:55:55;;;;;;;7.63;4.40;;;19.50;93.30;;;;;;5021691;28;20153;-76
2023/07/07 06:58:24;;;;;;;11.15;5.18;;;19.60;93.30;;;;;;5021996;28;20037;-76
2023/07/07 07:00:49;;;;;;;11.57;5.18;;;19.60;93.20;;;;;;5002518;28;20116;-76
2023/07/07 07:03:15;;;;;;;8.40;4.60;;;19.60;93.40;;;;;;5024755;28;20162;-76
2023/07/07 07:05:41;;;;;;;12.88;5.28;;;19.70;93.30;;;;;;5024747;28;20045;-75
2023/07/07 07:08:07;;;;;;;11.00;4.47;;;19.80;93.30;;;;;;5006121;28;20034;-77
2023/07/07 07:10:32;;;;;;;7.57;4.55;;;19.80;93.20;;;;;;5023775;28;20025;-76
2023/07/07 07:12:58;;;;;;;8.30;4.72;;;19.90;93.00;;;;;;5022883;28;20056;-73
2023/07/07 07:15:24;;;;;;;8.93;4.13;;;19.90;93.00;;;;;;5008810;28;20033;-75
2023/07/07 07:17:49;;;;;;;7.57;4.50;;;20.00;93.00;;;;;;5030682;28;20086;-75
2023/07/07 07:20:17;;;;;;;7.75;4.53;;;20.10;92.90;;;;;;5034008;28;20040;-76
2023/07/07 07:22:43;;;;;;;12.50;5.45;;;20.10;92.50;;;;;;5035634;28;20026;-77
2023/07/07 07:25:09;;;;;;;10.18;4.50;;;20.20;92.50;;;;;;5035708;28;20025;-75
2023/07/07 07:27:38;;;;;;;8.80;4.22;;;20.20;92.50;;;;;;5013521;28;20029;-75
2023/07/07 07:30:07;;;;;;;11.48;4.28;;;20.30;92.40;;;;;;5035611;28;20018;-77
2023/07/07 07:32:32;;;;;;;7.22;4.25;;;20.30;92.20;;;;;;5015694;28;20116;-73
2023/07/07 07:34:58;;;;;;;9.45;4.10;;;20.30;92.00;;;;;;5036730;28;20052;-78
2023/07/07 07:37:27;;;;;;;7.90;4.45;;;20.30;92.20;;;;;;5014648;28;20028;-75
2023/07/07 07:39:56;;;;;;;6.57;3.58;;;20.40;92.10;;;;;;5027789;28;20552;-76
2023/07/07 07:42:21;;;;;;;7.05;3.85;;;20.40;92.20;;;;;;5008009;28;20061;-75
2023/07/07 07:44:47;;;;;;;8.55;4.22;;;20.50;92.00;;;;;;5022642;28;20441;-74
2023/07/07 07:47:14;;;;;;;13.35;4.63;;;20.60;91.90;;;;;;5026868;28;20108;-75
2023/07/07 07:49:39;;;;;;;9.13;4.38;;;20.70;91.90;;;;;;5028580;28;20523;-76
2023/07/07 07:52:06;;;;;;;10.40;4.47;;;20.80;91.90;;;;;;5029949;28;20540;-76
2023/07/07 07:54:31;;;;;;;8.35;3.67;;;20.80;91.70;;;;;;5027441;28;20037;-75
2023/07/07 07:56:58;;;;;;;8.60;4.10;;;21.00;91.60;;;;;;5028604;28;20097;-74
2023/07/07 07:59:24;;;;;;;7.90;4.07;;;21.00;91.40;;;;;;5024656;28;20085;-74
2023/07/07 08:01:49;;;;;;;7.95;4.00;;;21.20;91.40;;;;;;5036982;28;20064;-74
2023/07/07 08:04:15;;;;;;;8.65;4.50;;;21.30;91.30;;;;;;5029846;28;20500;-73
2023/07/07 08:06:42;;;;;;;11.25;4.35;;;21.40;91.20;;;;;;5028456;28;20018;-76
2023/07/07 08:09:08;;;;;;;7.95;4.05;;;21.50;91.10;;;;;;5032321;28;20064;-74
2023/07/07 08:11:42;;;;;;;9.70;4.10;;;21.60;90.90;;;;;;5027983;28;20057;-74
2023/07/07 08:14:13;;;;;;;10.70;4.30;;;21.70;90.50;;;;;;5025067;28;20026;-74
2023/07/07 08:16:38;;;;;;;9.50;4.22;;;21.90;90.50;;;;;;5027254;28;20507;-76
2023/07/07 08:19:04;;;;;;;7.70;3.78;;;22.00;90.20;;;;;;5029751;28;20063;-76
2023/07/07 08:21:30;;;;;;;9.48;3.90;;;22.10;90.10;;;;;;5025782;28;20438;-76
2023/07/07 08:23:56;;;;;;;8.40;3.95;;;22.20;90.00;;;;;;5009511;28;20483;-75
2023/07/07 08:26:21;;;;;;;16.00;4.30;;;22.30;89.90;;;;;;5003978;28;20029;-76
2023/07/07 08:28:47;;;;;;;5.43;3.60;;;22.40;89.80;;;;;;5021781;28;20057;-76
2023/07/07 08:31:13;;;;;;;8.07;4.30;;;22.50;89.50;;;;;;5021619;28;20030;-76
2023/07/07 08:33:38;;;;;;;7.38;5.43;;;22.70;89.20;;;;;;5022079;28;20018;-75
2023/07/07 08:36:04;;;;;;;6.70;3.85;;;22.80;89.30;;;;;;5021382;28;20566;-76
2023/07/07 08:38:30;;;;;;;7.57;4.28;;;22.90;88.90;;;;;;5025146;28;20870;-76
2023/07/07 08:40:56;;;;;;;7.30;4.45;;;23.10;88.50;;;;;;5023131;28;20029;-75
2023/07/07 08:43:23;;;;;;;6.45;3.90;;;23.20;88.10;;;;;;5019180;28;20057;-75
2023/07/07 08:46:07;;;;;;;8.30;4.00;;;23.30;88.20;;;;;;5020540;28;20036;-75
2023/07/07 08:48:52;;;;;;;8.27;4.60;;;23.40;87.00;;;;;;5008425;28;20025;-75
2023/07/07 08:51:25;;;;;;;9.88;4.47;;;23.60;86.40;;;;;;5022274;28;20029;-75
2023/07/07 08:53:56;;;;;;;6.45;3.92;;;23.80;86.30;;;;;;5015444;28;20084;-75
2023/07/07 08:56:40;;;;;;;10.43;4.07;;;23.90;86.10;;;;;;5031198;28;20447;-75
2023/07/07 08:59:15;;;;;;;7.45;4.50;;;24.00;86.00;;;;;;5026673;28;20029;-75
2023/07/07 09:01:56;;;;;;;7.30;4.30;;;24.10;82.60;;;;;;5019991;28;20125;-75
2023/07/07 09:04:36;;;;;;;8.82;4.22;;;24.20;82.60;;;;;;5027143;28;20044;-75
2023/07/07 09:07:01;;;;;;;7.43;4.45;;;24.30;82.90;;;;;;5027080;28;20114;-75
2023/07/07 09:09:39;;;;;;;6.43;4.28;;;24.40;82.90;;;;;;5028546;28;20500;-75
2023/07/07 09:12:38;;;;;;;6.60;4.25;;;24.50;80.00;;;;;;5026042;28;20132;-75
2023/07/07 09:15:14;;;;;;;8.35;4.47;;;24.60;76.50;;;;;;4990535;28;20030;-75
2023/07/07 09:17:47;;;;;;;7.78;4.45;;;24.80;73.70;;;;;;5026275;28;20029;-75
2023/07/07 09:20:16;;;;;;;8.63;4.85;;;24.90;70.90;;;;;;5009703;28;20029;-75
2023/07/07 09:22:47;;;;;;;7.88;5.03;;;25.00;69.50;;;;;;5026418;28;20029;-75
2023/07/07 09:25:35;;;;;;;8.13;4.60;;;25.20;69.20;;;;;;5006096;28;20406;-75
2023/07/07 09:28:05;;;;;;;9.40;4.97;;;25.20;68.30;;;;;;5011379;28;20058;-75
2023/07/07 09:31:28;;;;;;;6.68;4.35;;;25.40;66.40;;;;;;5023077;28;20033;-75
2023/07/07 09:33:55;;;;;;;8.43;5.00;;;25.40;65.50;;;;;;4928232;29;20459;-75
2023/07/07 09:36:31;;;;;;;9.50;5.45;;;25.50;64.90;;;;;;4925226;29;20449;-75
2023/07/07 09:39:23;;;;;;;7.30;4.93;;;25.60;63.40;;;;;;4991678;28;20037;-75
2023/07/07 09:42:07;;;;;;;9.93;6.00;;;25.70;62.50;;;;;;5023415;28;20060;-75
2023/07/07 09:44:51;;;;;;;8.52;5.43;;;25.70;60.80;;;;;;5002724;28;20026;-75
2023/07/07 09:47:25;;;;;;;8.93;5.53;;;25.80;61.00;;;;;;5025005;28;20112;-75
2023/07/07 09:50:09;;;;;;;11.43;5.93;;;25.80;61.20;;;;;;5020293;28;20606;-75
2023/07/07 09:52:47;;;;;;;9.10;5.38;;;25.80;61.50;;;;;;5005294;28;20484;-75
2023/07/07 09:55:28;;;;;;;12.20;5.53;;;25.90;61.30;;;;;;5016484;28;20780;-73
2023/07/07 09:58:20;;;;;;;13.43;5.50;;;25.90;61.00;;;;;;5016605;28;20025;-69
2023/07/07 10:00:51;;;;;;;11.40;6.07;;;26.00;61.70;;;;;;5020719;28;20021;-71
2023/07/07 10:03:42;;;;;;;8.75;4.88;;;26.00;61.70;;;;;;5024791;28;20021;-71
2023/07/07 10:06:24;;;;;;;11.48;5.85;;;26.00;64.00;;;;;;5008418;28;20026;-70
2023/07/07 10:08:50;;;;;;;13.25;5.43;;;26.00;60.90;;;;;;5003381;28;20419;-72
2023/07/07 10:11:20;;;;;;;9.88;5.90;;;25.90;61.10;;;;;;5025259;28;20443;-71
2023/07/07 10:13:49;;;;;;;8.38;5.10;;;25.90;62.20;;;;;;5011287;28;20030;-72
2023/07/07 10:16:30;;;;;;;8.77;5.18;;;25.90;62.90;;;;;;5020074;28;20026;-71
2023/07/07 10:19:08;;;;;;;12.80;5.93;;;25.90;65.30;;;;;;5034767;22;20041;-86
2023/07/07 10:21:34;;;;;;;12.23;5.57;;;25.90;61.00;;;;;;5049734;28;20079;-85
2023/07/07 10:23:59;;;;;;;10.95;5.32;;;25.80;63.00;;;;;;5047659;28;20020;-82
2023/07/07 10:26:25;;;;;;;12.80;5.82;;;25.80;64.60;;;;;;5070979;28;20024;-85
2023/07/07 10:28:54;;;;;;;9.75;5.18;;;25.80;62.00;;;;;;5065786;28;20029;-82
2023/07/07 10:31:19;;;;;;;9.18;5.70;;;25.80;63.70;;;;;;5059875;28;20040;-83
2023/07/07 10:33:49;;;;;;;8.25;5.53;;;25.80;64.90;;;;;;5043289;28;20034;-85
2023/07/07 10:36:23;;;;;;;8.85;5.38;;;25.80;63.20;;;;;;5028445;28;20095;-86
2023/07/07 10:38:48;;;;;;;9.85;5.57;;;25.80;64.00;;;;;;5042821;28;20483;-86
2023/07/07 10:41:17;;;;;;;9.00;5.20;;;25.80;63.80;;;;;;5073095;28;20025;-85
2023/07/07 10:43:43;;;;;;;10.55;6.50;;;25.80;63.60;;;;;;5042847;28;20483;-86
2023/07/07 10:46:12;;;;;;;13.88;5.68;;;25.90;61.10;;;;;;5060125;28;20090;-80
2023/07/07 10:48:44;;;;;;;8.63;5.28;;;26.10;62.70;;;;;;5054468;28;20071;-84
2023/07/07 10:51:15;;;;;;;10.43;6.07;;;26.00;63.30;;;;;;5042512;28;20021;-84
2023/07/07 10:54:01;;;;;;;7.35;5.38;;;26.10;62.40;;;;;;5034527;28;20085;-85
2023/07/07 10:56:32;;;;;;;9.20;5.53;;;26.20;62.70;;;;;;5039178;28;20403;-85
2023/07/07 10:59:34;;;;;;;9.45;6.25;;;26.20;61.10;;;;;;5040087;28;20029;-84
2023/07/07 11:02:44;;;;;;;10.80;7.32;;;26.20;61.00;;;;;;5054069;28;20032;-83
2023/07/07 11:05:33;;;;;;;8.63;5.85;;;26.50;58.80;;;;;;5005005;28;20033;-87
2023/07/07 11:08:23;;;;;;;8.63;5.80;;;26.50;60.50;;;;;;5041887;28;20100;-84
2023/07/07 11:10:55;;;;;;;7.95;5.40;;;26.60;60.40;;;;;;5079934;28;20045;-83
2023/07/07 11:13:29;;;;;;;12.63;5.90;;;26.50;61.40;;;;;;5052204;28;20064;-84
2023/07/07 11:16:11;;;;;;;12.27;5.88;;;26.50;61.00;;;;;;5043539;28;20032;-85
2023/07/07 11:18:49;;;;;;;8.98;5.57;;;26.40;59.60;;;;;;5047341;28;20111;-80
2023/07/07 11:21:38;;;;;;;8.20;5.53;;;26.50;60.20;;;;;;5028390;28;20041;-83
2023/07/07 11:24:12;;;;;;;7.85;5.60;;;26.60;57.10;;;;;;5039260;28;20034;-86
2023/07/07 11:26:50;;;;;;;7.38;5.25;;;26.60;58.60;;;;;;5024230;28;20553;-85
2023/07/07 11:29:30;;;;;;;8.43;5.63;;;26.60;56.80;;;;;;5048015;28;20041;-84
2023/07/07 11:31:58;;;;;;;8.32;5.13;;;26.60;58.80;;;;;;5051028;28;20035;-85
2023/07/07 11:34:39;;;;;;;13.43;6.00;;;26.50;58.70;;;;;;5036828;28;20391;-80
2023/07/07 11:37:16;;;;;;;10.48;5.63;;;26.50;59.20;;;;;;5051386;28;20035;-84
2023/07/07 11:39:44;;;;;;;9.35;5.47;;;26.40;58.40;;;;;;5040953;28;20100;-85
2023/07/07 11:42:47;;;;;;;8.23;5.13;;;26.50;58.60;;;;;;5024492;28;20512;-85
2023/07/07 11:45:24;;;;;;;8.57;4.80;;;26.50;58.20;;;;;;5020970;28;20021;-83
2023/07/07 11:47:55;;;;;;;8.70;4.85;;;26.50;58.80;;;;;;5045179;28;20051;-83
2023/07/07 11:50:24;;;;;;;9.70;5.60;;;26.50;59.10;;;;;;5022413;28;20068;-83
2023/07/07 11:53:18;;;;;;;10.48;5.10;;;26.50;59.40;;;;;;5022607;28;20025;-84
2023/07/07 11:56:09;;;;;;;9.73;5.07;;;26.40;59.60;;;;;;5047237;28;20060;-82
2023/07/07 11:58:52;;;;;;;9.73;5.22;;;26.40;58.00;;;;;;5031979;28;20033;-83
2023/07/07 12:01:40;;;;;;;8.57;5.03;;;26.40;59.10;;;;;;5030748;28;20486;-86
2023/07/07 12:04:27;;;;;;;7.05;4.90;;;26.40;57.60;;;;;;5055613;28;20123;-86
2023/07/07 12:14:05;;;;;;;10.38;4.97;;;27.00;54.70;;;;;;5070551;22;20141;-77
2023/07/07 12:16:31;;;;;;;6.10;4.38;;;27.30;54.60;;;;;;5039555;28;20040;-78
2023/07/07 12:19:10;;;;;;;9.25;4.43;;;27.40;53.10;;;;;;5033851;28;20029;-78
2023/07/07 12:21:38;;;;;;;7.57;4.35;;;27.50;53.30;;;;;;5018097;28;20049;-80
2023/07/07 12:24:38;;;;;;;7.53;4.90;;;27.50;52.00;;;;;;5028531;28;20120;-77
2023/07/07 12:27:18;;;;;;;9.02;5.00;;;27.40;52.70;;;;;;5032066;28;20029;-79
2023/07/07 12:29:45;;;;;;;8.13;5.20;;;27.40;52.40;;;;;;5033558;28;20502;-78
2023/07/07 12:32:11;;;;;;;9.43;5.60;;;27.50;53.00;;;;;;5033215;28;20482;-78
2023/07/07 12:34:46;;;;;;;14.15;4.70;;;27.50;52.70;;;;;;5028434;28;20071;-80
2023/07/07 12:37:17;;;;;;;11.45;5.47;;;27.50;52.10;;;;;;5033459;28;20018;-75
2023/07/07 12:39:54;;;;;;;8.55;4.93;;;27.60;52.60;;;;;;5030745;28;20033;-79
2023/07/07 12:42:21;;;;;;;7.43;4.32;;;27.60;52.10;;;;;;5031609;28;20029;-76
2023/07/07 12:44:47;;;;;;;6.85;4.40;;;27.50;52.30;;;;;;5033071;28;20075;-77
2023/07/07 12:47:40;;;;;;;8.15;4.88;;;27.60;52.30;;;;;;5029681;28;20037;-75
2023/07/07 12:50:44;;;;;;;8.47;4.43;;;27.60;53.00;;;;;;5029373;28;20124;-78
2023/07/07 12:53:27;;;;;;;8.32;4.55;;;27.60;53.10;;;;;;5030838;28;20668;-79
2023/07/07 12:56:01;;;;;;;7.57;4.70;;;27.60;52.70;;;;;;5023027;28;20025;-76
2023/07/07 12:58:31;;;;;;;8.00;4.40;;;27.70;52.50;;;;;;5029307;28;20030;-77
2023/07/07 13:01:36;;;;;;;10.15;4.82;;;27.70;52.20;;;;;;5040415;28;20603;-77
2023/07/07 13:04:05;;;;;;;6.70;4.07;;;27.80;52.40;;;;;;5027930;28;20127;-76
2023/07/07 13:06:30;;;;;;;7.32;4.28;;;27.90;53.00;;;;;;5046201;28;20483;-77
2023/07/07 13:09:14;;;;;;;9.80;4.57;;;28.00;53.80;;;;;;5047987;28;20104;-77
2023/07/07 13:11:41;;;;;;;;;;;28.00;53.60;;;;;;5033532;28;20067;-76